createdAt,value
2023-03-11T00:00:47.139Z,76.19
2023-03-11T00:01:46.615Z,76.50
2023-03-11T00:02:46.741Z,76.61
2023-03-11T00:03:46.900Z,76.61
2023-03-11T00:04:47.092Z,76.40
2023-03-11T00:05:47.334Z,76.40
2023-03-11T00:06:47.462Z,76.50
2023-03-11T00:07:47.631Z,76.95
2023-03-11T00:08:47.810Z,76.84
2023-03-11T00:09:47.958Z,76.74
2023-03-11T00:10:48.161Z,76.64
2023-03-11T00:11:48.320Z,77.05
2023-03-11T00:12:48.501Z,77.15
2023-03-11T00:13:48.676Z,76.95
2023-03-11T00:14:48.835Z,77.26
2023-03-11T00:15:48.990Z,77.19
2023-03-11T00:16:49.181Z,77.09
2023-03-11T00:17:49.350Z,77.19
2023-03-11T00:18:49.510Z,77.29
2023-03-11T00:19:49.670Z,77.19
2023-03-11T00:20:49.883Z,77.61
2023-03-11T00:21:50.026Z,77.40
2023-03-11T00:22:50.239Z,77.54
2023-03-11T00:23:50.420Z,77.75
2023-03-11T00:24:50.554Z,77.75
2023-03-11T00:25:50.729Z,77.95
2023-03-11T00:26:50.892Z,77.85
2023-03-11T00:27:51.060Z,77.95
2023-03-11T00:28:51.215Z,78.06
2023-03-11T00:29:51.367Z,78.37
2023-03-11T00:30:51.592Z,78.16
2023-03-11T00:31:51.731Z,78.16
2023-03-11T00:32:52.051Z,78.16
2023-03-11T00:33:52.085Z,77.95
2023-03-11T00:34:52.266Z,78.06
2023-03-11T00:35:52.488Z,77.95
2023-03-11T00:36:52.612Z,78.06
2023-03-11T00:37:52.840Z,78.27
2023-03-11T00:38:52.990Z,78.37
2023-03-11T00:39:53.105Z,78.16
2023-03-11T00:40:53.308Z,78.27
2023-03-11T00:41:53.456Z,78.37
2023-03-11T00:42:53.673Z,78.37
2023-03-11T00:43:53.836Z,78.58
2023-03-11T00:44:54.009Z,78.41
2023-03-11T00:45:54.278Z,78.47
2023-03-11T00:46:54.353Z,78.47
2023-03-11T00:47:54.511Z,78.58
2023-03-11T00:48:54.672Z,78.58
2023-03-11T00:49:54.835Z,78.47
2023-03-11T00:50:55.029Z,78.16
2023-03-11T00:51:55.203Z,78.06
2023-03-11T00:52:55.408Z,77.95
2023-03-11T00:53:55.541Z,77.95
2023-03-11T00:54:55.733Z,78.16
2023-03-11T00:55:55.898Z,78.06
2023-03-11T00:56:56.083Z,78.27
2023-03-11T00:57:56.252Z,78.37
2023-03-11T00:58:56.412Z,78.16
2023-03-11T00:59:56.571Z,78.27
2023-03-11T01:00:56.803Z,78.16
2023-03-11T01:01:56.929Z,78.06
2023-03-11T01:02:57.137Z,78.37
2023-03-11T01:03:57.249Z,78.47
2023-03-11T01:04:57.473Z,78.27
2023-03-11T01:05:57.612Z,78.20
2023-03-11T01:06:57.797Z,78.37
2023-03-11T01:07:58.009Z,78.58
2023-03-11T01:08:58.138Z,78.27
2023-03-11T01:09:58.324Z,78.47
2023-03-11T01:10:58.505Z,78.51
2023-03-11T01:11:58.672Z,78.30
2023-03-11T01:12:58.861Z,78.30
2023-03-11T01:13:59.028Z,78.30
2023-03-11T01:14:59.169Z,78.51
2023-03-11T01:15:59.353Z,78.61
2023-03-11T01:16:59.511Z,78.72
2023-03-11T01:17:59.671Z,78.61
2023-03-11T01:19:00.318Z,78.72
2023-03-11T01:20:00.008Z,78.82
2023-03-11T01:21:00.182Z,78.72
2023-03-11T01:22:00.339Z,78.82
2023-03-11T01:23:00.508Z,78.92
2023-03-11T01:24:00.688Z,79.24
2023-03-11T01:25:00.849Z,79.34
2023-03-11T01:26:01.020Z,79.13
2023-03-11T01:27:01.182Z,79.13
2023-03-11T01:28:01.345Z,79.34
2023-03-11T01:29:01.526Z,79.44
2023-03-11T01:30:01.732Z,79.44
2023-03-11T01:31:01.912Z,79.34
2023-03-11T01:32:02.045Z,79.65
2023-03-11T01:33:02.196Z,79.34
2023-03-11T01:34:02.377Z,79.55
2023-03-11T01:35:02.552Z,79.65
2023-03-11T01:36:02.785Z,79.24
2023-03-11T01:37:02.885Z,79.13
2023-03-11T01:38:03.067Z,79.13
2023-03-11T01:39:03.223Z,79.13
2023-03-11T01:40:03.407Z,79.13
2023-03-11T01:41:03.552Z,79.03
2023-03-11T01:42:03.725Z,79.24
2023-03-11T01:43:03.896Z,79.03
2023-03-11T01:44:04.064Z,79.13
2023-03-11T01:45:04.232Z,79.24
2023-03-11T01:46:04.437Z,79.13
2023-03-11T01:47:04.587Z,78.92
2023-03-11T01:48:04.753Z,78.92
2023-03-11T01:49:04.921Z,79.13
2023-03-11T01:50:05.087Z,79.06
2023-03-11T01:51:05.242Z,79.17
2023-03-11T01:52:05.403Z,79.38
2023-03-11T01:53:05.568Z,79.27
2023-03-11T01:54:05.744Z,79.17
2023-03-11T01:55:05.930Z,79.27
2023-03-11T01:56:06.106Z,79.38
2023-03-11T01:57:06.259Z,79.27
2023-03-11T01:58:06.422Z,79.48
2023-03-11T01:59:06.610Z,79.38
2023-03-11T02:00:06.776Z,79.38
2023-03-11T02:01:06.951Z,79.48
2023-03-11T02:02:07.204Z,79.38
2023-03-11T02:03:07.306Z,79.69
2023-03-11T02:04:07.457Z,79.90
2023-03-11T02:05:07.638Z,79.79
2023-03-11T02:06:07.806Z,79.79
2023-03-11T02:07:07.992Z,79.69
2023-03-11T02:08:08.147Z,79.90
2023-03-11T02:09:08.297Z,79.90
2023-03-11T02:10:08.494Z,79.79
2023-03-11T02:11:08.652Z,80.00
2023-03-11T02:12:08.850Z,80.00
2023-03-11T02:13:08.999Z,80.00
2023-03-11T02:14:09.156Z,79.90
2023-03-11T02:15:09.328Z,79.48
2023-03-11T02:16:09.543Z,79.48
2023-03-11T02:17:09.671Z,79.58
2023-03-11T02:18:09.832Z,79.79
2023-03-11T02:19:10.001Z,79.79
2023-03-11T02:20:10.192Z,79.58
2023-03-11T02:21:10.376Z,79.79
2023-03-11T02:22:10.524Z,79.79
2023-03-11T02:23:10.697Z,79.79
2023-03-11T02:24:10.882Z,79.90
2023-03-11T02:25:11.072Z,79.90
2023-03-11T02:26:11.248Z,79.79
2023-03-11T02:27:11.451Z,79.90
2023-03-11T02:28:11.625Z,79.69
2023-03-11T02:29:11.785Z,79.69
2023-03-11T02:30:11.953Z,79.75
2023-03-11T02:31:12.191Z,79.75
2023-03-11T02:32:12.314Z,79.44
2023-03-11T02:33:12.451Z,79.44
2023-03-11T02:34:12.623Z,79.65
2023-03-11T02:35:12.793Z,80.06
2023-03-11T02:36:13.036Z,79.85
2023-03-11T02:37:13.125Z,79.96
2023-03-11T02:38:13.283Z,79.55
2023-03-11T02:39:13.452Z,79.75
2023-03-11T02:40:13.633Z,79.44
2023-03-11T02:41:13.794Z,79.24
2023-03-11T02:42:13.981Z,79.03
2023-03-11T02:43:14.137Z,79.24
2023-03-11T02:44:14.312Z,79.34
2023-03-11T02:45:14.504Z,79.13
2023-03-11T02:46:14.687Z,79.13
2023-03-11T02:47:14.838Z,79.24
2023-03-11T02:48:15.002Z,79.13
2023-03-11T02:49:15.176Z,78.92
2023-03-11T02:50:15.370Z,79.13
2023-03-11T02:51:15.524Z,79.13
2023-03-11T02:52:15.687Z,79.13
2023-03-11T02:53:15.854Z,79.34
2023-03-11T02:54:16.036Z,79.34
2023-03-11T02:55:16.234Z,78.92
2023-03-11T02:56:16.380Z,79.03
2023-03-11T02:57:16.553Z,79.03
2023-03-11T02:58:16.688Z,78.72
2023-03-11T02:59:16.863Z,78.92
2023-03-11T03:00:17.055Z,78.82
2023-03-11T03:01:17.233Z,78.82
2023-03-11T03:02:17.397Z,78.92
2023-03-11T03:03:17.564Z,79.03
2023-03-11T03:04:17.779Z,78.92
2023-03-11T03:05:17.901Z,78.82
2023-03-11T03:06:18.073Z,78.82
2023-03-11T03:07:18.240Z,79.03
2023-03-11T03:08:18.412Z,79.03
2023-03-11T03:09:18.581Z,78.82
2023-03-11T03:10:18.760Z,79.13
2023-03-11T03:11:18.932Z,79.03
2023-03-11T03:12:19.110Z,79.34
2023-03-11T03:13:19.269Z,79.24
2023-03-11T03:14:19.429Z,79.24
2023-03-11T03:15:19.653Z,78.72
2023-03-11T03:16:19.867Z,79.03
2023-03-11T03:17:19.993Z,78.89
2023-03-11T03:18:20.141Z,78.72
2023-03-11T03:19:20.402Z,78.82
2023-03-11T03:20:20.502Z,78.92
2023-03-11T03:21:20.650Z,78.72
2023-03-11T03:22:20.819Z,78.82
2023-03-11T03:23:21.000Z,79.13
2023-03-11T03:24:21.149Z,79.03
2023-03-11T03:25:21.342Z,79.03
2023-03-11T03:26:21.521Z,79.13
2023-03-11T03:27:21.685Z,79.24
2023-03-11T03:28:21.863Z,79.24
2023-03-11T03:29:22.025Z,79.24
2023-03-11T03:30:22.231Z,79.13
2023-03-11T03:31:22.435Z,79.24
2023-03-11T03:32:22.562Z,79.34
2023-03-11T03:33:22.729Z,79.34
2023-03-11T03:34:22.908Z,79.13
2023-03-11T03:35:23.097Z,79.24
2023-03-11T03:36:23.261Z,79.24
2023-03-11T03:37:23.428Z,79.34
2023-03-11T03:38:23.590Z,79.34
2023-03-11T03:39:23.759Z,79.24
2023-03-11T03:40:23.940Z,79.24
2023-03-11T03:41:24.128Z,79.24
2023-03-11T03:42:24.312Z,79.24
2023-03-11T03:43:24.479Z,79.24
2023-03-11T03:44:24.650Z,79.13
2023-03-11T03:45:24.856Z,79.24
2023-03-11T03:46:25.071Z,79.24
2023-03-11T03:47:25.169Z,79.24
2023-03-11T03:48:25.317Z,79.24
2023-03-11T03:49:25.491Z,79.24
2023-03-11T03:50:25.666Z,79.13
2023-03-11T03:51:25.826Z,79.13
2023-03-11T03:52:25.997Z,79.03
2023-03-11T03:53:26.177Z,79.03
2023-03-11T03:54:26.338Z,79.13
2023-03-11T03:55:26.524Z,78.92
2023-03-11T03:56:26.693Z,79.03
2023-03-11T03:57:26.854Z,78.92
2023-03-11T03:58:27.015Z,79.03
2023-03-11T03:59:27.212Z,79.03
2023-03-11T04:00:27.388Z,79.03
2023-03-11T04:01:27.558Z,79.03
2023-03-11T04:02:27.807Z,78.92
2023-03-11T04:03:27.966Z,79.13
2023-03-11T04:04:28.064Z,78.92
2023-03-11T04:05:28.256Z,78.92
2023-03-11T04:06:28.396Z,78.92
2023-03-11T04:07:28.550Z,78.92
2023-03-11T04:08:28.709Z,78.92
2023-03-11T04:09:28.891Z,78.72
2023-03-11T04:10:29.084Z,78.58
2023-03-11T04:11:29.252Z,78.51
2023-03-11T04:12:29.389Z,78.72
2023-03-11T04:13:29.559Z,78.68
2023-03-11T04:14:29.728Z,78.61
2023-03-11T04:15:29.917Z,78.82
2023-03-11T04:16:30.112Z,78.72
2023-03-11T04:17:30.242Z,78.68
2023-03-11T04:18:30.409Z,78.68
2023-03-11T04:19:30.583Z,78.47
2023-03-11T04:20:30.772Z,78.61
2023-03-11T04:21:30.914Z,78.51
2023-03-11T04:22:31.088Z,78.82
2023-03-11T04:23:31.274Z,78.78
2023-03-11T04:24:31.482Z,78.58
2023-03-11T04:25:31.625Z,78.58
2023-03-11T04:26:31.818Z,78.47
2023-03-11T04:27:31.953Z,78.47
2023-03-11T04:28:32.125Z,78.58
2023-03-11T04:29:32.300Z,78.06
2023-03-11T04:30:32.538Z,78.16
2023-03-11T04:31:32.644Z,78.27
2023-03-11T04:32:32.877Z,78.27
2023-03-11T04:33:32.977Z,78.16
2023-03-11T04:34:33.151Z,78.06
2023-03-11T04:35:33.366Z,78.16
2023-03-11T04:36:33.490Z,78.41
2023-03-11T04:37:33.662Z,78.20
2023-03-11T04:38:33.832Z,78.37
2023-03-11T04:39:34.000Z,78.47
2023-03-11T04:40:34.188Z,78.09
2023-03-11T04:41:34.354Z,78.20
2023-03-11T04:42:34.527Z,78.20
2023-03-11T04:43:34.688Z,78.30
2023-03-11T04:44:34.869Z,78.41
2023-03-11T04:45:35.039Z,78.30
2023-03-11T04:46:35.237Z,78.41
2023-03-11T04:47:35.398Z,78.51
2023-03-11T04:48:35.572Z,78.37
2023-03-11T04:49:35.735Z,78.16
2023-03-11T04:50:35.949Z,78.16
2023-03-11T04:51:36.082Z,78.16
2023-03-11T04:52:36.271Z,78.37
2023-03-11T04:53:36.435Z,78.16
2023-03-11T04:54:36.608Z,78.27
2023-03-11T04:55:36.804Z,78.27
2023-03-11T04:56:36.946Z,78.37
2023-03-11T04:57:37.124Z,78.51
2023-03-11T04:58:37.324Z,78.47
2023-03-11T04:59:37.480Z,78.47
2023-03-11T05:00:37.661Z,78.16
2023-03-11T05:01:37.946Z,78.16
2023-03-11T05:02:38.014Z,78.30
2023-03-11T05:03:38.183Z,78.30
2023-03-11T05:04:38.391Z,78.30
2023-03-11T05:05:38.555Z,78.51
2023-03-11T05:06:38.725Z,78.58
2023-03-11T05:07:38.915Z,78.20
2023-03-11T05:08:39.083Z,78.30
2023-03-11T05:09:39.255Z,78.30
2023-03-11T05:10:39.463Z,78.09
2023-03-11T05:11:39.593Z,78.30
2023-03-11T05:12:39.773Z,78.27
2023-03-11T05:13:39.939Z,78.37
2023-03-11T05:14:40.104Z,78.27
2023-03-11T05:15:40.352Z,78.16
2023-03-11T05:16:40.454Z,78.16
2023-03-11T05:17:40.632Z,77.85
2023-03-11T05:18:40.831Z,77.85
2023-03-11T05:19:40.972Z,77.64
2023-03-11T05:20:41.193Z,77.75
2023-03-11T05:21:41.350Z,78.06
2023-03-11T05:22:41.515Z,77.95
2023-03-11T05:23:41.671Z,77.75
2023-03-11T05:24:41.832Z,77.85
2023-03-11T05:25:42.018Z,77.75
2023-03-11T05:26:42.153Z,77.95
2023-03-11T05:27:42.342Z,77.44
2023-03-11T05:28:42.504Z,77.54
2023-03-11T05:29:42.689Z,77.64
2023-03-11T05:30:42.862Z,77.44
2023-03-11T05:31:43.000Z,77.75
2023-03-11T05:32:43.225Z,77.54
2023-03-11T05:33:43.360Z,77.64
2023-03-11T05:34:43.528Z,77.33
2023-03-11T05:35:43.791Z,77.33
2023-03-11T05:36:43.905Z,77.33
2023-03-11T05:37:44.061Z,77.64
2023-03-11T05:38:44.258Z,77.54
2023-03-11T05:39:44.461Z,77.23
2023-03-11T05:40:44.612Z,77.33
2023-03-11T05:41:44.773Z,77.33
2023-03-11T05:42:44.951Z,77.54
2023-03-11T05:43:45.126Z,77.33
2023-03-11T05:44:45.313Z,77.33
2023-03-11T05:45:45.505Z,77.44
2023-03-11T05:46:45.690Z,77.54
2023-03-11T05:47:45.824Z,77.54
2023-03-11T05:48:46.003Z,77.44
2023-03-11T05:49:46.182Z,77.54
2023-03-11T05:50:46.395Z,77.12
2023-03-11T05:51:46.523Z,77.33
2023-03-11T05:52:46.707Z,77.44
2023-03-11T05:53:46.875Z,77.54
2023-03-11T05:54:47.054Z,77.54
2023-03-11T05:55:47.266Z,77.54
2023-03-11T05:56:47.401Z,77.33
2023-03-11T05:57:47.581Z,77.33
2023-03-11T05:58:47.782Z,77.54
2023-03-11T05:59:47.930Z,77.54
2023-03-11T06:00:48.179Z,77.85
2023-03-11T06:01:48.320Z,77.23
2023-03-11T06:02:48.469Z,77.23
2023-03-11T06:03:48.779Z,77.23
2023-03-11T06:04:48.867Z,77.23
2023-03-11T06:05:49.018Z,76.92
2023-03-11T06:06:49.167Z,77.02
2023-03-11T06:07:49.346Z,77.33
2023-03-11T06:08:49.535Z,77.23
2023-03-11T06:09:49.710Z,76.61
2023-03-11T06:10:49.919Z,76.61
2023-03-11T06:11:50.036Z,76.71
2023-03-11T06:12:50.228Z,76.40
2023-03-11T06:13:50.398Z,76.50
2023-03-11T06:14:50.572Z,75.98
2023-03-11T06:15:50.796Z,75.57
2023-03-11T06:16:50.970Z,75.67
2023-03-11T06:17:51.115Z,75.15
2023-03-11T06:18:51.287Z,75.36
2023-03-11T06:19:51.425Z,75.46
2023-03-11T06:20:51.608Z,75.53
2023-03-11T06:21:51.764Z,75.53
2023-03-11T06:22:51.943Z,75.43
2023-03-11T06:23:52.095Z,74.81
2023-03-11T06:24:52.264Z,74.91
2023-03-11T06:25:52.474Z,75.32
2023-03-11T06:26:52.653Z,74.81
2023-03-11T06:27:52.814Z,74.57
2023-03-11T06:28:52.977Z,74.57
2023-03-11T06:29:53.133Z,74.26
2023-03-11T06:30:53.333Z,74.15
2023-03-11T06:31:53.553Z,73.84
2023-03-11T06:32:53.727Z,73.84
2023-03-11T06:33:53.824Z,73.84
2023-03-11T06:34:53.973Z,74.26
2023-03-11T06:35:54.182Z,74.15
2023-03-11T06:36:54.332Z,74.46
2023-03-11T06:37:54.516Z,74.36
2023-03-11T06:38:54.686Z,74.26
2023-03-11T06:39:54.861Z,74.15
2023-03-11T06:40:55.042Z,73.94
2023-03-11T06:41:55.227Z,73.22
2023-03-11T06:42:55.361Z,73.43
2023-03-11T06:43:55.555Z,73.84
2023-03-11T06:44:55.723Z,73.74
2023-03-11T06:45:55.956Z,73.84
2023-03-11T06:46:56.093Z,73.94
2023-03-11T06:47:56.278Z,73.22
2023-03-11T06:48:56.461Z,73.22
2023-03-11T06:49:56.642Z,73.63
2023-03-11T06:50:56.849Z,73.11
2023-03-11T06:51:56.970Z,72.91
2023-03-11T06:52:57.149Z,73.32
2023-03-11T06:53:57.340Z,73.22
2023-03-11T06:54:57.482Z,73.22
2023-03-11T06:55:57.660Z,73.01
2023-03-11T06:56:57.832Z,73.22
2023-03-11T06:57:58.019Z,73.32
2023-03-11T06:58:58.231Z,73.11
2023-03-11T06:59:58.398Z,72.71
2023-03-11T07:00:58.611Z,72.39
2023-03-11T07:01:58.719Z,72.29
2023-03-11T07:02:58.888Z,73.01
2023-03-11T07:03:59.086Z,73.01
2023-03-11T07:04:59.255Z,72.50
2023-03-11T07:05:59.423Z,72.71
2023-03-11T07:06:59.599Z,72.60
2023-03-11T07:07:59.772Z,72.67
2023-03-11T07:08:59.952Z,72.25
2023-03-11T07:10:00.119Z,72.36
2023-03-11T07:11:00.312Z,72.67
2023-03-11T07:12:00.461Z,71.94
2023-03-11T07:13:00.627Z,72.05
2023-03-11T07:14:00.800Z,72.15
2023-03-11T07:15:01.015Z,71.22
2023-03-11T07:16:01.233Z,71.94
2023-03-11T07:17:01.440Z,71.43
2023-03-11T07:18:01.532Z,72.36
2023-03-11T07:19:01.699Z,72.15
2023-03-11T07:20:01.908Z,71.94
2023-03-11T07:21:02.082Z,71.73
2023-03-11T07:22:02.236Z,71.50
2023-03-11T07:23:02.397Z,71.08
2023-03-11T07:24:02.580Z,71.26
2023-03-11T07:25:02.721Z,70.74
2023-03-11T07:26:02.913Z,70.32
2023-03-11T07:27:03.067Z,70.50
2023-03-11T07:28:03.238Z,70.61
2023-03-11T07:29:03.407Z,70.06
2023-03-11T07:30:03.589Z,69.54
2023-03-11T07:31:03.747Z,68.82
2023-03-11T07:32:03.957Z,69.51
2023-03-11T07:33:04.088Z,69.30
2023-03-11T07:34:04.279Z,68.99
2023-03-11T07:35:04.443Z,68.96
2023-03-11T07:36:04.676Z,68.44
2023-03-11T07:37:04.777Z,68.24
2023-03-11T07:38:04.957Z,68.13
2023-03-11T07:39:05.141Z,67.90
2023-03-11T07:40:05.286Z,67.69
2023-03-11T07:41:05.478Z,68.00
2023-03-11T07:42:05.652Z,68.51
2023-03-11T07:43:05.830Z,67.72
2023-03-11T07:44:06.574Z,68.24
2023-03-11T07:45:06.148Z,68.34
2023-03-11T07:46:06.394Z,68.13
2023-03-11T07:47:06.535Z,66.89
2023-03-11T07:48:06.719Z,68.03
2023-03-11T07:49:06.904Z,68.65
2023-03-11T07:50:07.084Z,68.96
2023-03-11T07:51:07.283Z,67.72
2023-03-11T07:52:07.434Z,68.13
2023-03-11T07:53:07.593Z,68.34
2023-03-11T07:54:07.735Z,68.75
2023-03-11T07:55:07.927Z,68.54
2023-03-11T07:56:09.119Z,67.72
2023-03-11T07:57:08.252Z,68.13
2023-03-11T07:58:08.422Z,68.03
2023-03-11T07:59:08.584Z,68.21
2023-03-11T08:00:08.753Z,66.83
2023-03-11T08:01:08.942Z,66.52
2023-03-11T08:02:09.141Z,66.42
2023-03-11T08:03:09.283Z,65.91
2023-03-11T08:04:09.482Z,66.73
2023-03-11T08:05:09.654Z,66.11
2023-03-11T08:06:09.854Z,66.42
2023-03-11T08:07:10.030Z,66.21
2023-03-11T08:08:10.203Z,66.60
2023-03-11T08:09:10.392Z,66.05
2023-03-11T08:10:10.587Z,65.33
2023-03-11T08:11:10.764Z,64.92
2023-03-11T08:12:10.933Z,64.89
2023-03-11T08:13:11.133Z,64.29
2023-03-11T08:14:11.297Z,65.22
2023-03-11T08:15:11.482Z,64.37
2023-03-11T08:16:11.731Z,63.54
2023-03-11T08:17:11.865Z,63.54
2023-03-11T08:18:12.008Z,63.85
2023-03-11T08:19:12.208Z,64.37
2023-03-11T08:20:12.361Z,63.99
2023-03-11T08:21:12.561Z,64.50
2023-03-11T08:22:12.728Z,64.81
2023-03-11T08:23:12.922Z,64.19
2023-03-11T08:24:14.126Z,64.40
2023-03-11T08:25:13.253Z,65.12
2023-03-11T08:26:13.434Z,65.43
2023-03-11T08:27:13.592Z,65.43
2023-03-11T08:28:13.781Z,64.58
2023-03-11T08:29:13.987Z,64.96
2023-03-11T08:30:14.154Z,64.03
2023-03-11T08:31:14.443Z,63.00
2023-03-11T08:32:14.562Z,63.52
2023-03-11T08:33:14.683Z,64.03
2023-03-11T08:34:14.859Z,63.34
2023-03-11T08:35:15.063Z,63.96
2023-03-11T08:36:15.247Z,64.78
2023-03-11T08:37:15.404Z,64.68
2023-03-11T08:38:15.599Z,64.47
2023-03-11T08:39:15.827Z,64.17
2023-03-11T08:40:15.982Z,64.75
2023-03-11T08:41:16.153Z,64.96
2023-03-11T08:42:16.289Z,63.62
2023-03-11T08:43:16.468Z,64.41
2023-03-11T08:44:16.650Z,63.25
2023-03-11T08:45:16.828Z,62.74
2023-03-11T08:46:17.034Z,63.12
2023-03-11T08:47:17.200Z,63.02
2023-03-11T08:48:17.363Z,62.68
2023-03-11T08:49:17.507Z,61.35
2023-03-11T08:50:17.728Z,61.44
2023-03-11T08:51:17.868Z,61.52
2023-03-11T08:52:18.017Z,61.32
2023-03-11T08:53:18.197Z,61.52
2023-03-11T08:54:18.391Z,61.00
2023-03-11T08:55:18.635Z,61.42
2023-03-11T08:56:18.838Z,61.83
2023-03-11T08:57:18.914Z,61.21
2023-03-11T08:58:19.083Z,62.24
2023-03-11T08:59:19.255Z,60.29
2023-03-11T09:00:19.438Z,61.04
2023-03-11T09:01:19.649Z,61.35
2023-03-11T09:02:19.836Z,62.06
2023-03-11T09:03:19.965Z,62.16
2023-03-11T09:04:20.185Z,61.76
2023-03-11T09:05:20.325Z,62.16
2023-03-11T09:06:20.512Z,60.93
2023-03-11T09:07:20.665Z,61.14
2023-03-11T09:08:20.865Z,60.96
2023-03-11T09:09:21.053Z,61.37
2023-03-11T09:10:21.229Z,61.17
2023-03-11T09:11:21.456Z,61.51
2023-03-11T09:12:21.615Z,61.19
2023-03-11T09:13:21.778Z,61.40
2023-03-11T09:14:21.951Z,61.84
2023-03-11T09:15:22.105Z,61.63
2023-03-11T09:16:22.395Z,62.35
2023-03-11T09:17:22.434Z,62.46
2023-03-11T09:18:22.643Z,62.15
2023-03-11T09:19:22.782Z,63.18
2023-03-11T09:20:22.983Z,62.77
2023-03-11T09:21:23.156Z,62.95
2023-03-11T09:22:23.315Z,63.05
2023-03-11T09:23:23.490Z,61.61
2023-03-11T09:24:23.671Z,61.51
2023-03-11T09:25:23.817Z,61.84
2023-03-11T09:26:24.007Z,61.94
2023-03-11T09:27:24.174Z,61.74
2023-03-11T09:28:24.378Z,61.56
2023-03-11T09:29:24.549Z,62.90
2023-03-11T09:30:24.875Z,62.70
2023-03-11T09:31:24.901Z,63.52
2023-03-11T09:32:25.085Z,63.72
2023-03-11T09:33:25.260Z,62.79
2023-03-11T09:34:25.440Z,62.07
2023-03-11T09:35:25.658Z,62.07
2023-03-11T09:36:25.797Z,62.38
2023-03-11T09:37:25.968Z,62.49
2023-03-11T09:38:26.160Z,63.39
2023-03-11T09:39:26.350Z,62.46
2023-03-11T09:40:26.507Z,61.63
2023-03-11T09:41:26.703Z,61.51
2023-03-11T09:42:26.877Z,61.61
2023-03-11T09:43:27.057Z,62.02
2023-03-11T09:44:27.245Z,62.51
2023-03-11T09:45:27.427Z,61.24
2023-03-11T09:46:27.704Z,61.76
2023-03-11T09:47:27.780Z,61.96
2023-03-11T09:48:27.948Z,61.24
2023-03-11T09:49:28.136Z,60.11
2023-03-11T09:50:28.301Z,60.42
2023-03-11T09:51:28.500Z,60.55
2023-03-11T09:52:28.657Z,61.79
2023-03-11T09:53:28.844Z,61.51
2023-03-11T09:54:29.022Z,62.63
2023-03-11T09:55:29.192Z,61.81
2023-03-11T09:56:29.382Z,61.40
2023-03-11T09:57:29.543Z,61.51
2023-03-11T09:58:29.711Z,61.22
2023-03-11T09:59:29.873Z,61.33
2023-03-11T10:00:30.054Z,62.97
2023-03-11T10:01:30.268Z,62.07
2023-03-11T10:02:30.599Z,62.79
2023-03-11T10:03:30.635Z,62.49
2023-03-11T10:04:30.772Z,63.13
2023-03-11T10:05:30.954Z,62.93
2023-03-11T10:06:31.163Z,63.65
2023-03-11T10:07:31.326Z,62.85
2023-03-11T10:08:31.514Z,62.34
2023-03-11T10:09:31.704Z,62.75
2023-03-11T10:10:31.861Z,63.47
2023-03-11T10:11:32.060Z,63.68
2023-03-11T10:12:32.261Z,63.40
2023-03-11T10:13:32.409Z,64.32
2023-03-11T10:14:32.571Z,65.25
2023-03-11T10:15:32.731Z,65.56
2023-03-11T10:16:32.974Z,65.15
2023-03-11T10:17:33.059Z,64.64
2023-03-11T10:18:33.232Z,64.32
2023-03-11T10:19:33.411Z,64.67
2023-03-11T10:20:33.570Z,65.70
2023-03-11T10:21:33.774Z,65.39
2023-03-11T10:22:33.932Z,64.98
2023-03-11T10:23:34.111Z,65.70
2023-03-11T10:24:34.310Z,65.18
2023-03-11T10:25:34.490Z,66.11
2023-03-11T10:26:34.724Z,65.62
2023-03-11T10:27:34.838Z,65.83
2023-03-11T10:28:35.000Z,65.73
2023-03-11T10:29:35.194Z,66.55
2023-03-11T10:30:35.382Z,65.73
2023-03-11T10:31:35.580Z,66.24
2023-03-11T10:32:35.779Z,66.35
2023-03-11T10:33:35.936Z,66.66
2023-03-11T10:34:36.101Z,66.86
2023-03-11T10:35:36.258Z,66.14
2023-03-11T10:36:36.427Z,66.14
2023-03-11T10:37:48.740Z,65.62
2023-03-11T10:38:37.768Z,66.04
2023-03-11T10:39:36.945Z,66.45
2023-03-11T10:40:37.098Z,66.66
2023-03-11T10:41:37.298Z,66.66
2023-03-11T10:42:37.459Z,65.94
2023-03-11T10:43:37.648Z,65.83
2023-03-11T10:44:37.807Z,66.45
2023-03-11T10:45:38.040Z,65.73
2023-03-11T10:46:38.204Z,65.94
2023-03-11T10:47:38.358Z,65.31
2023-03-11T10:48:38.533Z,63.97
2023-03-11T10:49:38.678Z,64.18
2023-03-11T10:50:38.869Z,63.67
2023-03-11T10:51:39.037Z,63.67
2023-03-11T10:52:39.207Z,63.67
2023-03-11T10:53:39.390Z,64.77
2023-03-11T10:54:39.616Z,64.56
2023-03-11T10:55:39.765Z,63.43
2023-03-11T10:56:39.985Z,63.19
2023-03-11T10:57:40.128Z,63.19
2023-03-11T10:58:40.299Z,63.40
2023-03-11T10:59:40.481Z,63.17
2023-03-11T11:00:40.646Z,63.06
2023-03-11T11:01:40.841Z,62.62
2023-03-11T11:02:43.563Z,62.90
2023-03-11T11:03:41.188Z,62.56
2023-03-11T11:04:41.361Z,62.15
2023-03-11T11:05:41.531Z,61.71
2023-03-11T11:06:41.725Z,60.17
2023-03-11T11:07:41.880Z,60.17
2023-03-11T11:08:42.079Z,59.86
2023-03-11T11:09:42.259Z,59.73
2023-03-11T11:10:42.418Z,59.63
2023-03-11T11:11:42.610Z,60.96
2023-03-11T11:12:42.760Z,59.80
2023-03-11T11:13:42.939Z,58.98
2023-03-11T11:14:43.112Z,58.47
2023-03-11T11:15:43.297Z,58.98
2023-03-11T11:16:43.518Z,58.44
2023-03-11T11:17:43.621Z,57.95
2023-03-11T11:18:43.799Z,58.78
2023-03-11T11:19:43.981Z,58.67
2023-03-11T11:20:44.150Z,58.57
2023-03-11T11:21:44.347Z,58.16
2023-03-11T11:22:44.546Z,57.13
2023-03-11T11:23:44.693Z,57.85
2023-03-11T11:24:44.870Z,57.64
2023-03-11T11:25:45.044Z,56.72
2023-03-11T11:26:45.249Z,57.03
2023-03-11T11:27:45.388Z,57.54
2023-03-11T11:28:45.553Z,58.67
2023-03-11T11:29:45.743Z,58.64
2023-03-11T11:30:45.928Z,57.41
2023-03-11T11:31:46.097Z,57.41
2023-03-11T11:32:46.318Z,57.00
2023-03-11T11:33:46.430Z,57.03
2023-03-11T11:34:46.609Z,56.93
2023-03-11T11:35:46.785Z,57.13
2023-03-11T11:36:46.968Z,56.95
2023-03-11T11:37:47.142Z,57.98
2023-03-11T11:38:47.312Z,57.98
2023-03-11T11:39:47.495Z,58.18
2023-03-11T11:40:47.668Z,57.80
2023-03-11T11:41:47.857Z,59.24
2023-03-11T11:42:48.033Z,58.31
2023-03-11T11:43:48.536Z,59.55
2023-03-11T11:44:48.538Z,59.45
2023-03-11T11:45:48.567Z,58.75
2023-03-11T11:46:48.745Z,58.03
2023-03-11T11:47:48.914Z,57.52
2023-03-11T11:48:49.075Z,58.34
2023-03-11T11:49:49.234Z,59.06
2023-03-11T11:50:49.404Z,58.54
2023-03-11T11:51:49.582Z,58.54
2023-03-11T11:52:49.745Z,58.86
2023-03-11T11:53:49.917Z,58.86
2023-03-11T11:54:50.093Z,59.17
2023-03-11T11:55:50.284Z,60.40
2023-03-11T11:56:50.461Z,59.99
2023-03-11T11:57:50.614Z,60.50
2023-03-11T11:58:50.774Z,59.58
2023-03-11T11:59:50.932Z,59.06
2023-03-11T12:00:51.130Z,58.75
2023-03-11T12:01:51.302Z,58.86
2023-03-11T12:02:51.472Z,59.06
2023-03-11T12:03:51.722Z,58.54
2023-03-11T12:04:51.832Z,58.98
2023-03-11T12:05:52.037Z,59.30
2023-03-11T12:06:52.208Z,58.47
2023-03-11T12:07:52.366Z,59.40
2023-03-11T12:08:52.563Z,59.91
2023-03-11T12:09:52.758Z,60.02
2023-03-11T12:10:52.940Z,60.05
2023-03-11T12:11:53.138Z,59.12
2023-03-11T12:12:53.299Z,59.40
2023-03-11T12:13:53.459Z,59.30
2023-03-11T12:14:53.621Z,59.91
2023-03-11T12:15:53.864Z,59.17
2023-03-11T12:16:53.968Z,58.54
2023-03-11T12:17:54.128Z,58.54
2023-03-11T12:18:54.288Z,57.39
2023-03-11T12:19:54.449Z,55.64
2023-03-11T12:20:54.665Z,56.77
2023-03-11T12:21:54.895Z,57.29
2023-03-11T12:22:55.004Z,58.18
2023-03-11T12:23:55.211Z,57.26
2023-03-11T12:24:55.340Z,55.72
2023-03-11T12:25:55.531Z,56.54
2023-03-11T12:26:55.727Z,56.13
2023-03-11T12:27:55.889Z,56.05
2023-03-11T12:28:56.056Z,55.33
2023-03-11T12:29:56.250Z,56.46
2023-03-11T12:30:56.521Z,57.42
2023-03-11T12:31:56.623Z,57.42
2023-03-11T12:32:56.793Z,57.01
2023-03-11T12:33:56.979Z,57.73
2023-03-11T12:34:57.232Z,58.34
2023-03-11T12:35:57.401Z,57.62
2023-03-11T12:36:57.529Z,58.03
2023-03-11T12:37:57.704Z,58.45
2023-03-11T12:38:57.858Z,58.45
2023-03-11T12:39:58.041Z,58.54
2023-03-11T12:40:58.210Z,59.06
2023-03-11T12:41:58.396Z,59.37
2023-03-11T12:42:58.581Z,59.58
2023-03-11T12:43:58.788Z,59.68
2023-03-11T12:44:58.922Z,59.37
2023-03-11T12:45:59.110Z,59.47
2023-03-11T12:46:59.425Z,58.96
2023-03-11T12:47:59.706Z,57.82
2023-03-11T12:48:59.650Z,58.34
2023-03-11T12:49:59.946Z,58.06
2023-03-11T12:51:00.020Z,58.16
2023-03-11T12:52:00.229Z,57.24
2023-03-11T12:53:00.393Z,58.24
2023-03-11T12:54:00.564Z,59.27
2023-03-11T12:55:00.719Z,58.86